Time;durP1;ratioP1;P1;durP2;ratioP2;P2;SDS_P1;SDS_P2;PMS_P1;PMS_P2;Temp;Humidity;BMP_temperature;BMP_pressure;BME280_temperature;BME280_humidity;BME280_pressure;Samples;Min_cycle;Max_cycle;Signal;HPM_P1;HPM_P2
2021/03/03 00:00:38;;;;;;;19.35;10.07;;;8.00;72.50;;;;;;5093736;28;20134;-80
2021/03/03 00:03:05;;;;;;;20.85;11.10;;;7.90;74.00;;;;;;5112120;28;20043;-80
2021/03/03 00:05:32;;;;;;;20.98;10.85;;;7.80;74.00;;;;;;5112092;28;20138;-79
2021/03/03 00:07:58;;;;;;;18.42;10.70;;;7.80;74.20;;;;;;5112006;28;20172;-79
2021/03/03 00:10:25;;;;;;;17.65;10.50;;;7.70;74.50;;;;;;5111609;28;20130;-79
2021/03/03 00:12:52;;;;;;;18.80;10.10;;;7.60;74.60;;;;;;5111910;28;20130;-80
2021/03/03 00:15:19;;;;;;;17.25;9.60;;;7.50;74.60;;;;;;5094263;28;20142;-79
2021/03/03 00:17:46;;;;;;;20.98;10.45;;;7.30;75.50;;;;;;5094660;28;20118;-80
2021/03/03 00:20:15;;;;;;;17.48;10.43;;;7.20;75.80;;;;;;5103352;27;20141;-80
2021/03/03 00:22:42;;;;;;;18.25;9.85;;;7.10;76.60;;;;;;5107203;27;20082;-80
2021/03/03 00:25:09;;;;;;;15.93;9.38;;;7.00;77.70;;;;;;5113195;27;20051;-80
2021/03/03 00:27:36;;;;;;;17.98;8.82;;;7.00;79.00;;;;;;5092848;28;20054;-80
2021/03/03 00:30:04;;;;;;;18.70;9.07;;;7.00;79.50;;;;;;5111838;28;20557;-80
2021/03/03 00:32:32;;;;;;;18.10;10.15;;;6.90;81.40;;;;;;5111454;28;20044;-78
2021/03/03 00:34:59;;;;;;;17.13;9.95;;;6.90;83.00;;;;;;5111648;28;20404;-79
2021/03/03 00:37:25;;;;;;;17.60;9.13;;;7.00;82.80;;;;;;5111765;28;20051;-79
2021/03/03 00:39:52;;;;;;;15.80;8.75;;;7.00;83.60;;;;;;5110948;28;20134;-79
2021/03/03 00:42:18;;;;;;;18.92;9.30;;;7.10;83.80;;;;;;5111423;28;20138;-79
2021/03/03 00:44:45;;;;;;;18.85;9.70;;;7.10;83.20;;;;;;5076989;28;20051;-79
2021/03/03 00:47:12;;;;;;;16.40;8.85;;;7.10;83.20;;;;;;5111884;28;20138;-79
2021/03/03 00:49:39;;;;;;;17.58;8.80;;;7.20;83.50;;;;;;5110578;28;20047;-79
2021/03/03 00:52:06;;;;;;;17.08;9.30;;;7.30;83.50;;;;;;5110948;28;20047;-79
2021/03/03 00:54:32;;;;;;;16.92;9.32;;;7.20;83.00;;;;;;5093458;28;20058;-79
2021/03/03 00:56:59;;;;;;;18.77;9.85;;;7.30;82.70;;;;;;5093768;28;20135;-79
2021/03/03 00:59:26;;;;;;;17.27;9.27;;;7.40;82.50;;;;;;5111048;28;20140;-78
2021/03/03 01:01:53;;;;;;;17.67;9.55;;;7.40;83.50;;;;;;5093666;28;20138;-79
2021/03/03 01:04:19;;;;;;;15.65;8.93;;;7.50;82.70;;;;;;5110427;28;20057;-78
2021/03/03 01:06:47;;;;;;;17.25;9.73;;;7.50;82.70;;;;;;5111473;28;20085;-79
2021/03/03 01:09:13;;;;;;;18.95;10.32;;;7.60;83.00;;;;;;5110880;28;20126;-79
2021/03/03 01:11:40;;;;;;;17.42;9.90;;;7.50;81.40;;;;;;5093057;28;20465;-80
2021/03/03 01:14:07;;;;;;;16.92;8.93;;;7.60;80.00;;;;;;5109821;28;20039;-79
2021/03/03 01:16:34;;;;;;;16.88;9.80;;;7.50;79.90;;;;;;5108468;28;20083;-80
2021/03/03 01:19:00;;;;;;;19.35;10.65;;;7.40;80.00;;;;;;5110404;28;20050;-78
2021/03/03 01:21:27;;;;;;;18.70;10.68;;;7.30;80.20;;;;;;5110814;28;20552;-80
2021/03/03 01:23:54;;;;;;;17.95;10.00;;;7.30;80.40;;;;;;5110809;28;20138;-79
2021/03/03 01:26:21;;;;;;;19.15;10.27;;;7.20;82.30;;;;;;5111424;28;20112;-80
2021/03/03 01:28:47;;;;;;;16.55;9.77;;;7.30;83.00;;;;;;5111493;28;20122;-79
2021/03/03 01:31:14;;;;;;;16.35;9.07;;;7.20;82.10;;;;;;5110773;28;20051;-79
2021/03/03 01:33:41;;;;;;;16.63;9.18;;;7.20;81.70;;;;;;5111210;28;20054;-79
2021/03/03 01:36:07;;;;;;;15.82;9.05;;;7.10;81.70;;;;;;5092849;28;20065;-79
2021/03/03 01:38:34;;;;;;;16.15;9.38;;;7.10;81.80;;;;;;5092783;28;20154;-79
2021/03/03 01:41:02;;;;;;;16.13;9.27;;;6.90;82.00;;;;;;5111549;28;20143;-79
2021/03/03 01:43:31;;;;;;;16.67;9.55;;;7.00;82.60;;;;;;5110500;28;20130;-79
2021/03/03 01:45:59;;;;;;;15.85;9.35;;;7.00;82.40;;;;;;5072034;28;20048;-78
2021/03/03 01:48:25;;;;;;;17.42;9.40;;;7.00;82.30;;;;;;5108939;28;20516;-78
2021/03/03 01:50:53;;;;;;;19.30;10.07;;;6.90;82.40;;;;;;5092544;28;20055;-78
2021/03/03 01:53:20;;;;;;;16.90;9.27;;;6.90;83.00;;;;;;5110892;28;20411;-78
2021/03/03 01:55:47;;;;;;;17.33;9.32;;;6.80;84.10;;;;;;5092704;28;20131;-78
2021/03/03 01:58:14;;;;;;;15.40;8.85;;;6.80;85.00;;;;;;5110340;28;20052;-79
2021/03/03 02:00:41;;;;;;;16.02;9.43;;;6.80;85.30;;;;;;5110361;28;20043;-78
2021/03/03 02:03:08;;;;;;;15.40;9.05;;;6.80;85.50;;;;;;5110521;28;20134;-78
2021/03/03 02:05:35;;;;;;;15.52;8.93;;;6.80;85.60;;;;;;5110198;28;20111;-78
2021/03/03 02:08:07;;;;;;;16.45;9.15;;;6.90;85.60;;;;;;5110945;28;20138;-78
2021/03/03 02:10:44;;;;;;;17.60;9.52;;;6.90;85.60;;;;;;5110546;28;20047;-78
2021/03/03 02:13:17;;;;;;;17.02;9.57;;;6.90;85.70;;;;;;5110068;28;20055;-78
2021/03/03 02:15:47;;;;;;;19.88;10.18;;;6.90;86.40;;;;;;5098535;28;20457;-78
2021/03/03 02:18:15;;;;;;;18.38;9.60;;;6.90;85.00;;;;;;5114358;28;20047;-79
2021/03/03 02:20:54;;;;;;;19.92;10.43;;;6.80;85.30;;;;;;5115113;28;20146;-79
2021/03/03 02:23:36;;;;;;;19.10;9.88;;;6.80;86.00;;;;;;5114522;28;20119;-79
2021/03/03 02:26:05;;;;;;;16.42;9.48;;;6.80;86.60;;;;;;5114019;28;20075;-79
2021/03/03 02:28:32;;;;;;;20.08;10.20;;;6.70;87.00;;;;;;5114277;28;20130;-79
2021/03/03 02:30:59;;;;;;;16.98;10.25;;;6.70;87.10;;;;;;5114075;28;20132;-79
2021/03/03 02:33:26;;;;;;;18.83;9.90;;;6.70;86.60;;;;;;5095395;28;20138;-79
2021/03/03 02:35:54;;;;;;;19.60;10.10;;;6.80;86.50;;;;;;5114331;28;20130;-79
2021/03/03 02:38:21;;;;;;;19.98;9.88;;;6.70;86.90;;;;;;5113931;28;20070;-79
2021/03/03 02:40:48;;;;;;;18.38;10.13;;;6.70;87.10;;;;;;5113801;28;20053;-78
2021/03/03 02:43:19;;;;;;;15.68;9.10;;;6.70;87.10;;;;;;5096136;28;20130;-79
2021/03/03 02:45:48;;;;;;;17.60;9.95;;;6.70;87.40;;;;;;5113310;28;20050;-79
2021/03/03 02:48:16;;;;;;;15.63;8.95;;;6.70;88.20;;;;;;5113548;28;20135;-79
2021/03/03 02:50:43;;;;;;;17.77;9.25;;;6.60;88.20;;;;;;5096352;28;20147;-78
2021/03/03 02:53:09;;;;;;;18.75;10.98;;;6.60;89.00;;;;;;5095666;28;20071;-79
2021/03/03 02:55:36;;;;;;;16.10;8.93;;;6.60;89.40;;;;;;5113990;28;20134;-78
2021/03/03 02:58:05;;;;;;;16.80;9.40;;;6.70;87.00;;;;;;5113507;28;20134;-79
2021/03/03 03:00:36;;;;;;;15.30;8.77;;;6.60;85.30;;;;;;5114182;28;20115;-79
2021/03/03 03:03:13;;;;;;;17.13;9.43;;;6.50;86.60;;;;;;5116158;28;20044;-79
2021/03/03 03:05:42;;;;;;;16.48;9.85;;;6.40;88.70;;;;;;5097518;28;20058;-80
2021/03/03 03:08:14;;;;;;;17.83;9.80;;;6.40;90.00;;;;;;5097891;28;20048;-80
2021/03/03 03:10:42;;;;;;;14.93;9.13;;;6.40;90.10;;;;;;5108215;28;20130;-78
2021/03/03 03:13:13;;;;;;;15.85;9.27;;;6.40;90.20;;;;;;5115607;28;20071;-79
2021/03/03 03:15:41;;;;;;;16.50;9.60;;;6.50;90.30;;;;;;5099395;28;20047;-79
2021/03/03 03:18:15;;;;;;;17.05;9.75;;;6.60;90.30;;;;;;5097684;28;20130;-80
2021/03/03 03:20:45;;;;;;;17.20;9.82;;;6.70;90.30;;;;;;5081646;28;20044;-79
2021/03/03 03:23:12;;;;;;;18.63;11.10;;;6.70;90.10;;;;;;5115664;28;20614;-79
2021/03/03 03:25:40;;;;;;;17.25;10.25;;;6.70;89.20;;;;;;5118812;28;20511;-79
2021/03/03 03:28:07;;;;;;;16.25;9.70;;;6.70;89.10;;;;;;5125964;28;20077;-79
2021/03/03 03:30:34;;;;;;;17.20;10.27;;;6.60;89.20;;;;;;5126066;28;20047;-79
2021/03/03 03:33:03;;;;;;;18.23;9.93;;;6.60;89.50;;;;;;5099411;28;20545;-80
2021/03/03 03:35:30;;;;;;;15.45;9.57;;;6.50;89.40;;;;;;5115695;28;20478;-79
2021/03/03 03:37:59;;;;;;;16.83;9.20;;;6.50;89.40;;;;;;5115313;28;20127;-80
2021/03/03 03:40:25;;;;;;;20.20;9.90;;;6.40;90.00;;;;;;5131763;27;20103;-80
2021/03/03 03:42:55;;;;;;;17.58;9.48;;;6.40;90.10;;;;;;5114912;28;20137;-79
2021/03/03 03:45:24;;;;;;;16.52;9.13;;;6.40;90.20;;;;;;5114816;28;20432;-79
2021/03/03 03:47:51;;;;;;;17.33;9.82;;;6.40;89.20;;;;;;5115308;28;20139;-79
2021/03/03 03:50:21;;;;;;;17.65;9.73;;;6.30;87.90;;;;;;5114793;28;20130;-78
2021/03/03 03:52:52;;;;;;;15.55;9.60;;;6.10;89.60;;;;;;5114278;28;20126;-79
2021/03/03 03:55:19;;;;;;;21.40;10.48;;;6.00;90.40;;;;;;5114396;28;20131;-80
2021/03/03 03:57:51;;;;;;;18.23;10.10;;;5.90;90.50;;;;;;5114468;28;20589;-79
2021/03/03 04:00:21;;;;;;;20.02;10.07;;;5.80;91.20;;;;;;5114368;28;20184;-78
2021/03/03 04:02:49;;;;;;;16.55;9.88;;;5.70;91.70;;;;;;5113148;28;20126;-79
2021/03/03 04:05:18;;;;;;;16.13;9.35;;;5.60;92.30;;;;;;5113034;28;20485;-79
2021/03/03 04:07:45;;;;;;;15.55;8.88;;;5.70;92.60;;;;;;5112513;28;20131;-79
2021/03/03 04:10:15;;;;;;;15.98;9.85;;;5.70;92.60;;;;;;5112912;28;20044;-79
2021/03/03 04:12:41;;;;;;;16.65;8.95;;;5.70;92.60;;;;;;5096576;28;20404;-79
2021/03/03 04:15:10;;;;;;;15.95;9.15;;;5.70;92.50;;;;;;5094383;28;20043;-78
2021/03/03 04:17:38;;;;;;;15.82;9.52;;;5.80;92.70;;;;;;5112494;28;20404;-79
2021/03/03 04:20:08;;;;;;;15.68;9.23;;;5.90;92.20;;;;;;5112747;28;20469;-78
2021/03/03 04:22:36;;;;;;;15.80;9.27;;;5.80;92.30;;;;;;5112311;28;20118;-78
2021/03/03 04:25:06;;;;;;;17.67;9.65;;;5.80;92.00;;;;;;5112082;28;20568;-78
2021/03/03 04:27:33;;;;;;;18.65;8.82;;;5.80;91.90;;;;;;5112407;28;20408;-78
2021/03/03 04:30:00;;;;;;;15.68;9.07;;;5.90;92.00;;;;;;5112668;28;20134;-79
2021/03/03 04:32:26;;;;;;;17.42;9.13;;;5.80;92.00;;;;;;5111981;28;20469;-79
2021/03/03 04:34:53;;;;;;;15.48;9.40;;;5.80;92.10;;;;;;5112487;28;20139;-79
2021/03/03 04:37:19;;;;;;;17.75;9.85;;;5.80;92.10;;;;;;5111002;28;20098;-79
2021/03/03 04:39:47;;;;;;;16.67;9.55;;;5.80;92.40;;;;;;5111768;28;20135;-78
2021/03/03 04:42:13;;;;;;;17.42;9.90;;;5.80;92.30;;;;;;5112024;28;20122;-78
2021/03/03 04:44:40;;;;;;;18.58;9.82;;;5.90;92.50;;;;;;5094005;28;20127;-77
2021/03/03 04:47:07;;;;;;;17.92;9.77;;;5.90;92.40;;;;;;5093723;28;20150;-76
2021/03/03 04:49:34;;;;;;;18.52;10.23;;;5.90;92.30;;;;;;5111663;28;20142;-77
2021/03/03 04:52:01;;;;;;;18.30;10.35;;;5.90;91.80;;;;;;5111355;28;20122;-75
2021/03/03 04:54:28;;;;;;;19.67;10.80;;;5.90;91.90;;;;;;5110707;28;20524;-76
2021/03/03 04:56:55;;;;;;;16.38;9.45;;;5.90;91.90;;;;;;5111559;28;20497;-76
2021/03/03 04:59:22;;;;;;;19.00;10.88;;;5.90;92.00;;;;;;5111622;28;20126;-76
2021/03/03 05:01:49;;;;;;;19.08;10.10;;;5.90;91.80;;;;;;5111294;28;20116;-75
2021/03/03 05:04:15;;;;;;;17.15;9.35;;;5.80;91.30;;;;;;5093081;28;20130;-76
2021/03/03 05:06:42;;;;;;;17.33;10.57;;;5.70;91.20;;;;;;5111097;28;20040;-75
2021/03/03 05:09:09;;;;;;;19.48;10.65;;;5.60;91.50;;;;;;5111549;28;20122;-77
2021/03/03 05:11:35;;;;;;;21.42;10.80;;;5.50;91.70;;;;;;5111677;28;20054;-76
2021/03/03 05:14:03;;;;;;;20.05;10.77;;;5.40;92.20;;;;;;5111679;28;20055;-76
2021/03/03 05:16:30;;;;;;;18.77;10.65;;;5.30;92.60;;;;;;5111128;28;20130;-76
2021/03/03 05:18:57;;;;;;;16.48;9.95;;;5.20;92.80;;;;;;5111195;28;20079;-76
2021/03/03 05:21:23;;;;;;;17.08;10.13;;;5.10;93.10;;;;;;5111593;28;20059;-79
2021/03/03 05:23:50;;;;;;;19.50;10.13;;;5.10;93.60;;;;;;5076903;28;20079;-82
2021/03/03 05:26:17;;;;;;;17.35;9.55;;;5.10;93.80;;;;;;5111314;28;20050;-78
2021/03/03 05:28:45;;;;;;;15.25;9.15;;;5.10;93.80;;;;;;5111150;28;20134;-77
2021/03/03 05:31:13;;;;;;;17.95;9.93;;;5.10;93.80;;;;;;5111196;28;20504;-77
2021/03/03 05:33:43;;;;;;;15.88;9.35;;;5.20;93.90;;;;;;5110888;28;20500;-77
2021/03/03 05:36:10;;;;;;;20.58;9.93;;;5.20;93.80;;;;;;5100865;28;20143;-78
2021/03/03 05:38:39;;;;;;;16.75;9.75;;;5.20;93.70;;;;;;5110823;28;20131;-78
2021/03/03 05:41:07;;;;;;;19.25;10.88;;;5.20;93.80;;;;;;5093431;28;20144;-78
2021/03/03 05:43:36;;;;;;;17.10;9.50;;;5.20;93.70;;;;;;5111498;28;20047;-78
2021/03/03 05:46:05;;;;;;;20.08;10.60;;;5.20;93.80;;;;;;5111217;28;20143;-78
2021/03/03 05:48:38;;;;;;;18.92;10.52;;;5.30;93.70;;;;;;5111181;28;20048;-78
2021/03/03 05:51:07;;;;;;;17.42;10.85;;;5.30;93.80;;;;;;5115245;28;20138;-78
2021/03/03 05:53:35;;;;;;;18.38;11.13;;;5.30;93.70;;;;;;5114358;27;20131;-78
2021/03/03 05:56:03;;;;;;;18.92;11.25;;;5.30;93.60;;;;;;5097255;28;20077;-78
2021/03/03 05:58:33;;;;;;;22.17;11.15;;;5.40;93.40;;;;;;5114996;28;20131;-78
2021/03/03 06:01:02;;;;;;;18.00;10.20;;;5.30;93.10;;;;;;5115100;28;20138;-78
2021/03/03 06:03:29;;;;;;;18.75;10.45;;;5.30;93.30;;;;;;5115025;28;20150;-78
2021/03/03 06:05:58;;;;;;;19.40;11.80;;;5.30;93.30;;;;;;5114648;28;20414;-78
2021/03/03 06:08:26;;;;;;;19.27;11.25;;;5.30;92.90;;;;;;5115196;28;20047;-78
2021/03/03 06:10:53;;;;;;;21.98;12.15;;;5.20;92.70;;;;;;5115294;28;20131;-78
2021/03/03 06:13:21;;;;;;;21.45;12.10;;;5.10;93.00;;;;;;5115103;28;20139;-78
2021/03/03 06:15:47;;;;;;;18.35;10.55;;;5.00;93.40;;;;;;5079674;28;20588;-78
2021/03/03 06:18:16;;;;;;;21.02;11.57;;;4.90;93.40;;;;;;5114902;28;20057;-78
2021/03/03 06:20:45;;;;;;;19.70;10.63;;;4.80;93.40;;;;;;5115307;28;20142;-78
2021/03/03 06:23:19;;;;;;;18.92;10.48;;;4.60;94.00;;;;;;5096980;28;20565;-77
2021/03/03 06:25:47;;;;;;;17.70;11.00;;;4.60;94.50;;;;;;5097143;28;20516;-78
2021/03/03 06:28:32;;;;;;;21.55;11.40;;;4.50;94.80;;;;;;5114649;28;20380;-78
2021/03/03 06:30:59;;;;;;;23.65;12.68;;;4.60;95.10;;;;;;5096716;28;20130;-77
2021/03/03 06:33:26;;;;;;;40.22;17.35;;;4.50;95.10;;;;;;5114745;28;20587;-77
2021/03/03 06:35:54;;;;;;;31.88;16.52;;;4.60;95.40;;;;;;5114548;28;20058;-77
2021/03/03 06:38:28;;;;;;;20.65;10.63;;;4.60;95.50;;;;;;5114423;28;20138;-78
2021/03/03 06:40:57;;;;;;;19.27;10.30;;;4.60;95.40;;;;;;5114463;28;20082;-78
2021/03/03 06:43:26;;;;;;;19.83;10.90;;;4.60;95.30;;;;;;5096308;28;20535;-78
2021/03/03 06:45:54;;;;;;;18.27;9.98;;;4.60;95.50;;;;;;5114250;28;20401;-78
2021/03/03 06:48:38;;;;;;;16.83;8.80;;;4.70;95.60;;;;;;5096154;28;20404;-78
2021/03/03 06:51:29;;;;;;;17.02;9.30;;;4.70;95.50;;;;;;5095998;28;20051;-78
2021/03/03 06:53:59;;;;;;;17.77;8.75;;;4.80;95.90;;;;;;5113519;28;20143;-77
2021/03/03 06:56:38;;;;;;;16.67;9.18;;;4.80;95.40;;;;;;5096301;28;20075;-79
2021/03/03 06:59:21;;;;;;;17.35;10.00;;;5.00;95.60;;;;;;5114156;28;20134;-77
2021/03/03 07:01:50;;;;;;;20.15;10.18;;;5.00;95.40;;;;;;5113239;28;20040;-77
2021/03/03 07:04:24;;;;;;;18.25;9.30;;;5.00;94.90;;;;;;5095488;28;20047;-77
2021/03/03 07:06:52;;;;;;;17.45;9.57;;;5.10;95.00;;;;;;5113874;28;20127;-77
2021/03/03 07:09:21;;;;;;;17.83;9.90;;;5.10;95.00;;;;;;5114118;28;20130;-77
2021/03/03 07:11:49;;;;;;;20.63;11.43;;;5.10;95.00;;;;;;5113783;28;20044;-77
2021/03/03 07:14:18;;;;;;;25.50;11.73;;;5.20;95.00;;;;;;5114167;28;20130;-77
2021/03/03 07:17:08;;;;;;;18.77;11.07;;;5.30;95.10;;;;;;5113663;28;20134;-77
2021/03/03 07:19:37;;;;;;;21.05;11.77;;;5.40;95.20;;;;;;5113989;28;20052;-77
2021/03/03 07:22:07;;;;;;;20.73;12.25;;;5.40;94.60;;;;;;5095960;28;20054;-77
2021/03/03 07:24:35;;;;;;;20.73;12.10;;;5.50;94.50;;;;;;5113783;28;20055;-77
2021/03/03 07:27:04;;;;;;;19.67;10.65;;;5.50;94.30;;;;;;5113606;28;20142;-77
2021/03/03 07:29:33;;;;;;;18.13;10.73;;;5.50;93.90;;;;;;5113606;28;20073;-78
2021/03/03 07:32:00;;;;;;;19.83;10.10;;;5.60;93.70;;;;;;5113306;28;20047;-77
2021/03/03 07:34:28;;;;;;;15.05;9.57;;;5.50;93.80;;;;;;5095575;28;20506;-79
2021/03/03 07:36:55;;;;;;;19.52;10.63;;;5.40;93.90;;;;;;5113446;28;20476;-79
2021/03/03 07:39:27;;;;;;;19.05;10.52;;;5.40;94.20;;;;;;5113219;28;20075;-78
2021/03/03 07:41:59;;;;;;;18.38;10.38;;;5.40;94.20;;;;;;5113183;28;20048;-79
2021/03/03 07:44:26;;;;;;;19.63;11.48;;;5.30;94.40;;;;;;5113128;28;20043;-78
2021/03/03 07:46:53;;;;;;;17.52;10.43;;;5.40;94.30;;;;;;5113027;28;20043;-79
2021/03/03 07:49:24;;;;;;;17.42;9.93;;;5.40;94.00;;;;;;5112926;28;20053;-79
2021/03/03 07:51:51;;;;;;;18.08;10.65;;;5.50;94.20;;;;;;5112772;28;20130;-78
2021/03/03 07:54:18;;;;;;;20.88;10.50;;;5.50;94.40;;;;;;5112867;28;20067;-79
2021/03/03 07:56:45;;;;;;;20.00;11.55;;;5.50;94.60;;;;;;5112915;28;20098;-79
2021/03/03 07:59:13;;;;;;;20.02;10.25;;;5.60;94.70;;;;;;5112680;28;20056;-79
2021/03/03 08:01:40;;;;;;;18.27;11.18;;;5.70;94.60;;;;;;5095018;28;20071;-79
2021/03/03 08:04:07;;;;;;;19.38;10.73;;;5.80;94.40;;;;;;5113171;28;20500;-79
2021/03/03 08:06:37;;;;;;;18.67;11.15;;;6.00;94.20;;;;;;5113651;28;20094;-78
2021/03/03 08:09:18;;;;;;;21.60;11.20;;;6.00;94.00;;;;;;5098222;28;20087;-78
2021/03/03 08:11:47;;;;;;;20.08;11.07;;;6.10;93.90;;;;;;5121973;28;20044;-79
2021/03/03 08:14:36;;;;;;;18.50;10.82;;;6.20;93.80;;;;;;5117473;28;20463;-79
2021/03/03 08:17:11;;;;;;;17.38;10.35;;;6.30;93.60;;;;;;5096039;28;20043;-79
2021/03/03 08:20:01;;;;;;;18.58;10.27;;;6.30;93.40;;;;;;5112620;28;20055;-79
2021/03/03 08:22:53;;;;;;;17.65;10.40;;;6.30;93.40;;;;;;5112624;28;20069;-79
2021/03/03 08:25:43;;;;;;;19.15;10.75;;;6.30;93.50;;;;;;5112525;28;20053;-81
2021/03/03 08:28:39;;;;;;;18.35;10.13;;;6.40;93.50;;;;;;5112431;28;20048;-78
2021/03/03 08:31:36;;;;;;;22.08;11.75;;;6.50;93.50;;;;;;5077101;28;20126;-78
2021/03/03 08:34:09;;;;;;;25.10;12.50;;;6.60;93.70;;;;;;5112084;28;20048;-78
2021/03/03 08:37:03;;;;;;;22.42;12.48;;;6.60;93.50;;;;;;5112013;28;20417;-78
2021/03/03 08:39:41;;;;;;;23.15;12.05;;;6.70;93.70;;;;;;5112290;28;20146;-78
2021/03/03 08:42:40;;;;;;;18.45;11.63;;;6.80;93.50;;;;;;5112222;28;20122;-78
2021/03/03 08:45:17;;;;;;;21.63;11.43;;;6.80;93.50;;;;;;5112099;28;20047;-78
2021/03/03 08:47:57;;;;;;;22.08;11.98;;;6.90;93.40;;;;;;5109114;28;20164;-78
2021/03/03 08:50:43;;;;;;;22.73;11.40;;;7.00;93.30;;;;;;5094170;28;20207;-78
2021/03/03 08:53:49;;;;;;;19.83;12.18;;;7.00;93.30;;;;;;5102351;28;20489;-78
2021/03/03 08:56:38;;;;;;;20.98;12.30;;;7.10;93.40;;;;;;5111900;28;20104;-78
2021/03/03 08:59:06;;;;;;;21.48;12.63;;;7.20;93.10;;;;;;5094168;28;20090;-78
2021/03/03 09:01:54;;;;;;;27.05;15.90;;;7.10;92.70;;;;;;5112095;28;20504;-78
2021/03/03 09:04:28;;;;;;;36.53;19.08;;;7.40;92.70;;;;;;5091413;28;20146;-78
2021/03/03 09:06:58;;;;;;;33.00;17.58;;;7.40;92.60;;;;;;5091448;28;20135;-77
2021/03/03 09:09:26;;;;;;;34.83;17.17;;;7.50;92.60;;;;;;5091126;28;20061;-78
2021/03/03 09:12:02;;;;;;;30.23;18.35;;;7.50;92.60;;;;;;5091036;28;20044;-78
2021/03/03 09:14:30;;;;;;;25.67;13.63;;;7.60;92.70;;;;;;5091166;28;20055;-78
2021/03/03 09:16:59;;;;;;;23.05;13.15;;;7.70;92.20;;;;;;5091014;28;20519;-78
2021/03/03 09:19:30;;;;;;;21.48;12.85;;;7.70;92.20;;;;;;5091494;28;20082;-78
2021/03/03 09:21:58;;;;;;;21.10;12.00;;;7.80;92.40;;;;;;5091386;28;20044;-78
2021/03/03 09:24:26;;;;;;;21.67;12.43;;;7.80;92.60;;;;;;5072946;28;20051;-78
2021/03/03 09:27:05;;;;;;;22.42;12.68;;;7.90;92.70;;;;;;5091245;28;20563;-78
2021/03/03 09:29:35;;;;;;;21.92;12.02;;;8.00;92.40;;;;;;5091139;28;20454;-78
2021/03/03 09:32:07;;;;;;;21.35;12.90;;;8.10;92.20;;;;;;5073444;28;20051;-81
2021/03/03 09:34:36;;;;;;;21.80;13.00;;;8.10;92.10;;;;;;5091071;28;20048;-78
2021/03/03 09:37:05;;;;;;;24.48;13.73;;;8.20;91.80;;;;;;5090223;28;20048;-78
2021/03/03 09:39:32;;;;;;;19.35;12.23;;;8.10;91.90;;;;;;5090867;28;20047;-78
2021/03/03 09:42:02;;;;;;;22.80;12.70;;;8.10;92.00;;;;;;5090978;28;20052;-78
2021/03/03 09:44:45;;;;;;;21.42;12.07;;;8.20;92.20;;;;;;5091025;28;20051;-78
2021/03/03 09:47:12;;;;;;;19.15;12.23;;;8.20;92.30;;;;;;5090987;28;20488;-78
2021/03/03 09:49:40;;;;;;;21.63;11.40;;;8.30;92.10;;;;;;5090892;28;20055;-78
2021/03/03 09:52:06;;;;;;;18.17;10.25;;;8.40;91.80;;;;;;5090797;28;20080;-78
2021/03/03 09:54:35;;;;;;;19.15;11.30;;;8.40;92.20;;;;;;5090885;28;20048;-79
2021/03/03 09:57:12;;;;;;;18.30;10.57;;;8.50;92.40;;;;;;5090183;28;20044;-79
2021/03/03 09:59:42;;;;;;;17.02;11.20;;;8.70;92.30;;;;;;5090750;28;20066;-79
2021/03/03 10:02:11;;;;;;;20.50;11.93;;;8.70;92.20;;;;;;5090904;28;20054;-80
2021/03/03 10:04:44;;;;;;;21.27;11.40;;;8.70;92.20;;;;;;5090942;28;20048;-78
2021/03/03 10:07:12;;;;;;;19.10;11.13;;;8.90;92.30;;;;;;5073177;28;20453;-78
2021/03/03 10:09:42;;;;;;;22.48;12.52;;;9.00;92.00;;;;;;5091276;28;20048;-78
2021/03/03 10:12:14;;;;;;;37.88;20.05;;;8.90;91.90;;;;;;5091223;28;20048;-78
2021/03/03 10:15:05;;;;;;;29.05;16.50;;;9.10;92.00;;;;;;5090838;28;20199;-78
2021/03/03 10:17:39;;;;;;;25.27;15.40;;;9.20;91.60;;;;;;5090845;28;20452;-78
2021/03/03 10:20:25;;;;;;;23.80;13.67;;;9.20;91.50;;;;;;5072546;28;20048;-79
2021/03/03 10:22:52;;;;;;;20.38;12.45;;;9.30;91.40;;;;;;5087140;28;20490;-78
2021/03/03 10:25:32;;;;;;;19.95;12.75;;;9.40;91.00;;;;;;5055967;28;20056;-79
2021/03/03 10:28:20;;;;;;;19.73;12.02;;;9.60;90.90;;;;;;5090381;28;20083;-78
2021/03/03 10:30:51;;;;;;;19.95;11.38;;;9.70;90.90;;;;;;5090290;28;20104;-79
2021/03/03 10:33:27;;;;;;;20.83;12.27;;;9.80;90.30;;;;;;5090622;28;20048;-78
2021/03/03 10:36:04;;;;;;;19.42;12.38;;;9.90;89.10;;;;;;5091031;28;20131;-78
2021/03/03 10:38:33;;;;;;;21.20;12.20;;;10.00;88.40;;;;;;5094671;28;20131;-79
2021/03/03 10:41:03;;;;;;;22.50;12.85;;;10.00;88.60;;;;;;5093888;28;20051;-79
2021/03/03 10:43:30;;;;;;;22.08;12.27;;;10.00;87.80;;;;;;5094447;28;20084;-79
2021/03/03 10:46:11;;;;;;;19.42;11.30;;;10.20;86.90;;;;;;5076065;28;20048;-78
2021/03/03 10:48:38;;;;;;;18.63;11.55;;;10.30;87.20;;;;;;5075811;28;20098;-79
2021/03/03 10:51:06;;;;;;;18.38;11.65;;;10.30;87.30;;;;;;5093810;28;20044;-79
2021/03/03 10:53:50;;;;;;;22.40;12.43;;;10.40;87.00;;;;;;5093806;28;20571;-79
2021/03/03 10:56:25;;;;;;;20.55;12.50;;;10.50;87.10;;;;;;5093904;28;20080;-79
2021/03/03 10:58:52;;;;;;;;;;;10.60;85.70;;;;;;5093800;28;20134;-79
2021/03/03 11:01:19;;;;;;;18.48;11.50;;;10.70;85.30;;;;;;5093523;28;20278;-78
2021/03/03 11:03:55;;;;;;;18.50;11.73;;;10.70;84.50;;;;;;5093910;28;20044;-78
2021/03/03 11:06:23;;;;;;;20.52;11.85;;;10.80;84.40;;;;;;5093651;28;20055;-79
2021/03/03 11:08:50;;;;;;;17.63;11.00;;;10.80;84.20;;;;;;5092883;28;20082;-79
2021/03/03 11:11:16;;;;;;;19.20;11.73;;;10.90;84.50;;;;;;5093445;28;20597;-78
2021/03/03 11:13:43;;;;;;;24.45;13.50;;;10.90;84.10;;;;;;5093123;28;20478;-79
2021/03/03 11:16:09;;;;;;;22.42;12.27;;;11.00;83.60;;;;;;5093831;28;20409;-78
2021/03/03 11:18:36;;;;;;;18.33;11.68;;;11.10;83.20;;;;;;5093118;28;20066;-78
2021/03/03 11:21:03;;;;;;;22.60;12.07;;;11.20;82.80;;;;;;5093433;28;20051;-79
2021/03/03 11:23:31;;;;;;;20.88;12.38;;;11.30;82.50;;;;;;5093554;28;20048;-79
2021/03/03 11:25:58;;;;;;;20.48;11.75;;;11.30;81.80;;;;;;5092948;28;20060;-79
2021/03/03 11:28:25;;;;;;;20.30;12.25;;;11.40;81.20;;;;;;5092812;28;20048;-80
2021/03/03 11:30:53;;;;;;;21.80;12.38;;;11.40;79.80;;;;;;5093501;28;20079;-80
2021/03/03 11:33:20;;;;;;;20.17;11.70;;;11.50;78.70;;;;;;5075754;28;20048;-82
2021/03/03 11:35:47;;;;;;;20.95;13.30;;;11.50;78.70;;;;;;5093397;28;20136;-80
2021/03/03 11:38:14;;;;;;;21.95;12.25;;;11.60;78.50;;;;;;5093135;28;20076;-80
2021/03/03 11:40:42;;;;;;;22.88;11.57;;;11.70;78.10;;;;;;5092834;28;20079;-80
2021/03/03 11:43:09;;;;;;;19.02;12.20;;;11.80;77.30;;;;;;5093220;28;20459;-80
2021/03/03 11:45:35;;;;;;;19.50;13.02;;;11.90;76.40;;;;;;5093254;28;20084;-80
2021/03/03 11:48:02;;;;;;;20.48;12.88;;;11.70;75.60;;;;;;5092534;28;20072;-79
2021/03/03 11:50:28;;;;;;;18.85;11.88;;;12.00;74.60;;;;;;5093086;28;20048;-79
2021/03/03 11:52:55;;;;;;;19.92;12.60;;;12.10;74.10;;;;;;5092567;28;20075;-79
2021/03/03 11:55:22;;;;;;;21.40;13.25;;;12.00;73.50;;;;;;5074771;28;20056;-79
2021/03/03 11:57:49;;;;;;;20.63;12.18;;;12.20;73.60;;;;;;5092530;28;20052;-79
2021/03/03 12:00:17;;;;;;;28.83;17.20;;;12.30;72.20;;;;;;5071137;28;20080;-78
2021/03/03 12:02:44;;;;;;;23.60;14.38;;;12.30;72.30;;;;;;5072175;28;20048;-78
2021/03/03 12:05:13;;;;;;;25.40;13.82;;;12.30;71.20;;;;;;5071044;28;20051;-79
2021/03/03 12:07:39;;;;;;;16.40;10.98;;;12.50;71.30;;;;;;5069736;28;20048;-78
2021/03/03 12:10:08;;;;;;;22.30;12.23;;;12.40;70.80;;;;;;5070841;28;20048;-78
2021/03/03 12:12:34;;;;;;;17.90;10.90;;;12.40;70.60;;;;;;5071393;28;20048;-78
2021/03/03 12:15:03;;;;;;;17.75;10.93;;;12.50;70.70;;;;;;5071571;28;20699;-77
2021/03/03 12:17:29;;;;;;;18.92;11.65;;;12.50;70.70;;;;;;5071567;28;20072;-76
2021/03/03 12:19:56;;;;;;;17.80;11.10;;;12.60;70.40;;;;;;5071232;28;20041;-77
2021/03/03 12:22:22;;;;;;;18.70;11.57;;;12.70;69.90;;;;;;5071202;28;20055;-77
2021/03/03 12:24:49;;;;;;;21.27;11.77;;;12.80;69.40;;;;;;5071804;28;20048;-77
2021/03/03 12:27:15;;;;;;;19.65;12.30;;;12.80;69.00;;;;;;5071417;28;20416;-77
2021/03/03 12:29:42;;;;;;;18.15;11.23;;;12.90;68.50;;;;;;5071082;28;20080;-77
2021/03/03 12:32:10;;;;;;;20.08;11.40;;;13.00;68.00;;;;;;5070411;28;20060;-77
2021/03/03 12:34:36;;;;;;;20.38;13.07;;;13.00;68.10;;;;;;5071605;28;20049;-78
2021/03/03 12:37:03;;;;;;;19.27;11.43;;;13.00;66.60;;;;;;5071539;28;20048;-78
2021/03/03 12:39:30;;;;;;;18.95;11.98;;;13.20;65.80;;;;;;5071277;28;20131;-77
2021/03/03 12:41:56;;;;;;;19.50;11.90;;;13.20;65.00;;;;;;5071041;28;20056;-77
2021/03/03 12:44:23;;;;;;;16.40;10.65;;;13.20;65.10;;;;;;5070917;28;20040;-78
2021/03/03 12:46:50;;;;;;;20.27;11.40;;;13.20;65.40;;;;;;5069319;28;20053;-78
2021/03/03 12:49:17;;;;;;;19.23;12.20;;;13.20;65.20;;;;;;5070775;28;20048;-77
2021/03/03 12:51:44;;;;;;;20.05;12.70;;;13.30;64.30;;;;;;5071097;28;20046;-78